Time;durP1;ratioP1;P1;durP2;ratioP2;P2;SDS_P1;SDS_P2;PMS_P1;PMS_P2;Temp;Humidity;BMP_temperature;BMP_pressure;BME280_temperature;BME280_humidity;BME280_pressure;Samples;Min_cycle;Max_cycle;Signal;HPM_P1;HPM_P2
2022/04/28 00:00:51;;;;;;;0.40;0.40;;;7.60;99.90;;;;;;5036180;28;20417;-73
2022/04/28 00:03:41;;;;;;;0.40;0.40;;;7.60;99.90;;;;;;5036019;28;20428;-75
2022/04/28 00:06:29;;;;;;;0.40;0.40;;;7.50;99.90;;;;;;5034699;28;20429;-74
2022/04/28 00:09:17;;;;;;;0.40;0.40;;;7.50;99.90;;;;;;5034919;28;20495;-73
2022/04/28 00:12:06;;;;;;;0.40;0.40;;;7.50;99.90;;;;;;5034932;28;20421;-75
2022/04/28 00:14:54;;;;;;;0.50;0.50;;;7.50;99.90;;;;;;5034494;28;20433;-74
2022/04/28 00:17:42;;;;;;;0.50;0.50;;;7.40;99.90;;;;;;5035116;28;21017;-73
2022/04/28 00:20:32;;;;;;;0.40;0.40;;;7.30;99.90;;;;;;5034752;28;20491;-72
2022/04/28 00:23:20;;;;;;;0.40;0.40;;;7.30;99.90;;;;;;5034309;28;20483;-74
2022/04/28 00:26:08;;;;;;;0.50;0.50;;;7.20;99.90;;;;;;5034830;28;20433;-75
2022/04/28 00:28:56;;;;;;;0.50;0.50;;;7.20;99.90;;;;;;5034919;28;20457;-73
2022/04/28 00:31:44;;;;;;;0.50;0.50;;;7.20;99.90;;;;;;5033889;28;20457;-73
2022/04/28 00:34:32;;;;;;;0.40;0.40;;;7.20;99.90;;;;;;5034022;28;20512;-73
2022/04/28 00:37:22;;;;;;;0.50;0.50;;;7.20;99.90;;;;;;5035497;28;20453;-73
2022/04/28 00:40:12;;;;;;;0.40;0.40;;;7.20;99.90;;;;;;5035216;28;20437;-74
2022/04/28 00:46:02;;;;;;;0.50;0.50;;;7.40;99.90;;;;;;5036426;28;20534;-72
2022/04/28 00:51:59;;;;;;;0.47;0.47;;;7.70;99.90;;;;;;5035524;28;20448;-74
2022/04/28 00:54:56;;;;;;;0.40;0.40;;;7.50;99.90;;;;;;5035383;28;20463;-74
2022/04/28 00:57:45;;;;;;;0.40;0.40;;;7.60;99.90;;;;;;5035515;28;20441;-73
2022/04/28 01:00:33;;;;;;;0.40;0.40;;;7.50;99.90;;;;;;5035886;28;20516;-75
2022/04/28 01:03:21;;;;;;;0.40;0.40;;;7.40;99.90;;;;;;5035723;28;20498;-75
2022/04/28 01:06:10;;;;;;;0.40;0.40;;;7.40;99.90;;;;;;5035427;28;20941;-73
2022/04/28 01:08:58;;;;;;;0.50;0.50;;;7.40;99.90;;;;;;5034553;28;20428;-73
2022/04/28 01:11:48;;;;;;;0.50;0.50;;;7.40;99.90;;;;;;5035689;28;20421;-75
2022/04/28 01:14:36;;;;;;;0.40;0.40;;;7.30;99.90;;;;;;5035463;28;20494;-74
2022/04/28 01:17:24;;;;;;;0.50;0.50;;;7.30;99.90;;;;;;5035238;28;20441;-73
2022/04/28 01:20:12;;;;;;;0.40;0.40;;;7.30;99.90;;;;;;5035399;28;20496;-73
2022/04/28 01:23:04;;;;;;;0.40;0.40;;;7.20;99.90;;;;;;5021887;28;20929;-72
2022/04/28 01:25:52;;;;;;;0.50;0.50;;;7.20;99.90;;;;;;5037206;28;21113;-74
2022/04/28 01:28:40;;;;;;;0.50;0.50;;;7.10;99.90;;;;;;5039100;28;20448;-74
2022/04/28 01:31:28;;;;;;;0.50;0.50;;;7.00;99.90;;;;;;5039260;28;20483;-70
2022/04/28 01:34:16;;;;;;;0.40;0.40;;;7.00;99.90;;;;;;5039082;28;20440;-74
2022/04/28 01:37:06;;;;;;;0.50;0.50;;;7.00;99.90;;;;;;5039362;28;20441;-73
2022/04/28 01:39:56;;;;;;;0.40;0.40;;;6.90;99.90;;;;;;5038370;28;20499;-73
2022/04/28 01:42:46;;;;;;;0.40;0.40;;;6.90;99.90;;;;;;5039742;28;20436;-72
2022/04/28 01:45:34;;;;;;;0.40;0.40;;;6.80;99.90;;;;;;5039865;28;20453;-72
2022/04/28 01:48:22;;;;;;;0.50;0.50;;;6.70;99.90;;;;;;5042567;28;20536;-73
2022/04/28 01:57:39;;;;;;;0.50;0.50;;;6.70;99.90;;;;;;4974121;28;20522;-73
2022/04/28 02:00:29;;;;;;;0.60;0.60;;;6.60;99.90;;;;;;5033422;28;20550;-74
2022/04/28 02:03:17;;;;;;;0.43;0.43;;;6.50;99.90;;;;;;5037466;28;20417;-73
2022/04/28 02:06:05;;;;;;;0.40;0.40;;;6.60;99.90;;;;;;5037066;28;20452;-74
2022/04/28 02:08:53;;;;;;;0.50;0.50;;;6.40;99.90;;;;;;5033814;28;20467;-73
2022/04/28 02:11:41;;;;;;;0.50;0.50;;;6.50;99.90;;;;;;5033722;28;20429;-72
2022/04/28 02:14:30;;;;;;;0.50;0.50;;;6.30;99.90;;;;;;5034171;28;20500;-73
2022/04/28 02:17:19;;;;;;;0.40;0.40;;;6.20;99.90;;;;;;5034124;28;20449;-73
2022/04/28 02:20:08;;;;;;;0.50;0.50;;;6.20;99.90;;;;;;5035676;28;20468;-72
2022/04/28 02:22:58;;;;;;;0.50;0.50;;;6.20;99.90;;;;;;5034083;28;20422;-72
2022/04/28 02:25:46;;;;;;;0.50;0.50;;;6.10;99.90;;;;;;5033380;28;20474;-73
2022/04/28 02:28:34;;;;;;;0.50;0.50;;;6.10;99.90;;;;;;5034120;28;20448;-73
2022/04/28 02:31:23;;;;;;;0.50;0.50;;;6.00;99.90;;;;;;5034021;28;20487;-73
2022/04/28 02:34:11;;;;;;;0.47;0.47;;;6.00;99.90;;;;;;5032913;28;20417;-73
2022/04/28 02:36:59;;;;;;;0.50;0.50;;;6.00;99.90;;;;;;5033164;28;20449;-73
2022/04/28 02:39:47;;;;;;;0.50;0.50;;;6.00;99.90;;;;;;5034531;28;20468;-73
2022/04/28 02:42:35;;;;;;;0.50;0.50;;;6.00;99.90;;;;;;5034385;28;20479;-72
2022/04/28 02:45:24;;;;;;;0.50;0.50;;;6.00;99.90;;;;;;5033978;28;20432;-73
2022/04/28 02:48:13;;;;;;;0.40;0.40;;;5.90;99.90;;;;;;5033592;28;20464;-71
2022/04/28 02:51:01;;;;;;;0.50;0.50;;;6.00;99.90;;;;;;5033905;28;20472;-71
2022/04/28 02:53:49;;;;;;;0.50;0.50;;;6.00;99.90;;;;;;5033883;28;20421;-72
2022/04/28 02:56:38;;;;;;;0.50;0.50;;;5.80;99.90;;;;;;5033749;28;20437;-72
2022/04/28 02:59:26;;;;;;;0.40;0.40;;;5.80;99.90;;;;;;5033505;28;20493;-72
2022/04/28 03:02:14;;;;;;;0.40;0.40;;;5.80;99.90;;;;;;5033359;28;20946;-73
2022/04/28 03:05:04;;;;;;;0.40;0.40;;;5.70;99.90;;;;;;5033268;28;20502;-73
2022/04/28 03:11:00;;;;;;;0.50;0.50;;;5.70;99.90;;;;;;5017159;28;20447;-70
2022/04/28 03:13:48;;;;;;;0.50;0.50;;;5.60;99.90;;;;;;5033111;28;20482;-70
2022/04/28 03:16:36;;;;;;;0.50;0.50;;;5.60;99.90;;;;;;5033437;28;20432;-70
2022/04/28 03:19:25;;;;;;;0.40;0.40;;;5.60;99.90;;;;;;5033423;28;20465;-71
2022/04/28 03:22:14;;;;;;;0.50;0.50;;;5.60;99.90;;;;;;5032988;28;20432;-70
2022/04/28 03:25:02;;;;;;;0.40;0.40;;;5.50;99.90;;;;;;5032722;28;20892;-71
2022/04/28 03:27:50;;;;;;;0.50;0.50;;;5.50;99.90;;;;;;5032449;28;20519;-70
2022/04/28 03:30:38;;;;;;;0.50;0.50;;;5.60;99.90;;;;;;5032608;28;20846;-71
2022/04/28 03:33:26;;;;;;;0.50;0.50;;;5.40;99.90;;;;;;5032981;28;20855;-71
2022/04/28 03:39:21;;;;;;;0.40;0.40;;;5.30;99.90;;;;;;5032579;28;20511;-70
2022/04/28 03:42:09;;;;;;;0.50;0.50;;;5.30;99.90;;;;;;5008057;28;20433;-70
2022/04/28 03:44:57;;;;;;;0.50;0.50;;;5.30;99.90;;;;;;5013248;28;20429;-71
2022/04/28 03:47:45;;;;;;;0.50;0.50;;;5.30;99.90;;;;;;5013133;28;20505;-70
2022/04/28 03:50:33;;;;;;;0.40;0.40;;;5.30;99.90;;;;;;5012323;28;20426;-71
2022/04/28 03:53:21;;;;;;;0.50;0.50;;;5.20;99.90;;;;;;5013357;28;20465;-71
2022/04/28 03:56:11;;;;;;;0.50;0.50;;;5.30;99.90;;;;;;5013085;28;20483;-70
2022/04/28 03:58:59;;;;;;;0.50;0.50;;;5.30;99.90;;;;;;5013431;28;20990;-70
2022/04/28 04:01:48;;;;;;;0.50;0.50;;;5.20;99.90;;;;;;5011669;28;20418;-70
2022/04/28 04:04:37;;;;;;;0.50;0.50;;;5.20;99.90;;;;;;5013390;28;20433;-71
2022/04/28 04:07:29;;;;;;;0.50;0.50;;;5.20;99.90;;;;;;5013287;28;20450;-70
2022/04/28 04:10:17;;;;;;;0.50;0.50;;;5.30;99.90;;;;;;5015280;28;20862;-72
2022/04/28 04:13:07;;;;;;;0.50;0.50;;;5.30;99.90;;;;;;5013213;28;20947;-71
2022/04/28 04:15:55;;;;;;;0.50;0.50;;;5.80;99.90;;;;;;5011972;28;20418;-70
2022/04/28 04:18:43;;;;;;;0.43;0.43;;;5.80;99.90;;;;;;5013058;28;20554;-71
2022/04/28 04:21:31;;;;;;;0.50;0.50;;;5.40;99.90;;;;;;5011598;28;20540;-70
2022/04/28 04:24:19;;;;;;;0.50;0.50;;;5.50;99.90;;;;;;5012946;28;20933;-69
2022/04/28 04:27:07;;;;;;;0.50;0.50;;;5.50;99.90;;;;;;5013541;28;20508;-71
2022/04/28 04:29:57;;;;;;;0.50;0.50;;;5.50;99.90;;;;;;5013798;28;20426;-72
2022/04/28 04:32:44;;;;;;;0.50;0.50;;;5.50;99.90;;;;;;5013397;28;20840;-70
2022/04/28 04:35:32;;;;;;;0.40;0.40;;;5.50;99.90;;;;;;5013005;28;20437;-71
2022/04/28 04:38:20;;;;;;;2.87;2.67;;;5.50;99.90;;;;;;5012249;28;20524;-71
2022/04/28 04:41:11;;;;;;;0.50;0.50;;;5.50;99.90;;;;;;5012650;28;20469;-71
2022/04/28 04:43:59;;;;;;;1.37;1.37;;;5.60;99.90;;;;;;5012216;28;20423;-70
2022/04/28 04:46:48;;;;;;;0.40;0.40;;;5.60;99.90;;;;;;5011871;28;20982;-70
2022/04/28 04:49:36;;;;;;;0.50;0.50;;;5.70;99.90;;;;;;5012613;28;21079;-70
2022/04/28 04:52:24;;;;;;;0.40;0.40;;;5.80;99.90;;;;;;5012971;28;20429;-70
2022/04/28 04:55:12;;;;;;;0.50;0.50;;;5.90;99.90;;;;;;5012500;28;20434;-70
2022/04/28 04:58:01;;;;;;;0.50;0.50;;;5.80;99.90;;;;;;5011415;28;20478;-70
2022/04/28 05:00:49;;;;;;;0.40;0.40;;;5.90;99.90;;;;;;5014746;28;21076;-72
2022/04/28 05:03:40;;;;;;;0.40;0.40;;;5.90;99.90;;;;;;5016039;28;20512;-71
2022/04/28 05:06:29;;;;;;;0.50;0.50;;;6.00;99.90;;;;;;5016292;28;20426;-70
2022/04/28 05:09:17;;;;;;;0.50;0.50;;;6.10;99.90;;;;;;5018505;28;20822;-71
2022/04/28 05:12:06;;;;;;;0.47;0.47;;;6.10;99.90;;;;;;5019620;28;20784;-71
2022/04/28 05:14:59;;;;;;;0.40;0.40;;;6.20;99.90;;;;;;5021608;28;20426;-70
2022/04/28 05:17:47;;;;;;;0.40;0.40;;;6.20;99.90;;;;;;5019298;28;20499;-71
2022/04/28 05:20:37;;;;;;;0.50;0.50;;;6.30;99.90;;;;;;5019095;28;20469;-71
2022/04/28 05:23:25;;;;;;;0.47;0.47;;;6.50;99.90;;;;;;5017960;28;20831;-70
2022/04/28 05:26:14;;;;;;;0.40;0.40;;;6.50;99.90;;;;;;5019135;28;20438;-71
2022/04/28 05:29:02;;;;;;;0.50;0.50;;;6.70;99.90;;;;;;5017951;28;20484;-71
2022/04/28 05:31:56;;;;;;;0.50;0.50;;;6.80;99.90;;;;;;5019070;28;20513;-72
2022/04/28 05:34:44;;;;;;;0.50;0.50;;;7.00;99.90;;;;;;5018138;28;20474;-71
2022/04/28 05:37:33;;;;;;;0.40;0.40;;;7.10;99.90;;;;;;5014095;28;20465;-70
2022/04/28 05:40:21;;;;;;;0.50;0.50;;;7.20;99.90;;;;;;5015962;28;20469;-68
2022/04/28 05:46:17;;;;;;;0.40;0.40;;;7.40;99.90;;;;;;4998123;28;20525;-68
2022/04/28 05:49:06;;;;;;;0.40;0.40;;;7.50;99.90;;;;;;4996643;28;20457;-69
2022/04/28 05:51:54;;;;;;;0.50;0.50;;;7.80;99.90;;;;;;5003938;28;20429;-68
2022/04/28 05:54:43;;;;;;;0.50;0.50;;;8.00;99.90;;;;;;5020541;28;20520;-68
2022/04/28 05:57:32;;;;;;;0.50;0.50;;;8.30;99.90;;;;;;5034525;28;20467;-68
2022/04/28 06:00:20;;;;;;;0.50;0.50;;;8.50;99.90;;;;;;5035763;28;20515;-69
2022/04/28 06:03:08;;;;;;;0.50;0.50;;;8.60;99.90;;;;;;5011593;28;20520;-69
2022/04/28 06:05:57;;;;;;;1.07;1.00;;;8.80;99.90;;;;;;5002403;28;20418;-68
2022/04/28 06:08:45;;;;;;;0.50;0.50;;;8.80;99.90;;;;;;5011520;28;20479;-70
2022/04/28 06:11:34;;;;;;;2.30;2.20;;;8.80;99.90;;;;;;5005340;28;20438;-68
2022/04/28 06:14:22;;;;;;;0.60;0.60;;;9.00;99.90;;;;;;5016394;28;21077;-69
2022/04/28 06:17:10;;;;;;;0.73;0.73;;;9.00;99.90;;;;;;5016095;28;20462;-69
2022/04/28 06:19:59;;;;;;;0.70;0.70;;;9.20;99.90;;;;;;5026918;28;20461;-68
2022/04/28 06:23:03;;;;;;;1.53;1.33;;;9.40;99.90;;;;;;5034278;28;20428;-70
2022/04/28 06:25:52;;;;;;;0.60;0.60;;;9.60;99.90;;;;;;5031690;28;20482;-68
2022/04/28 06:28:41;;;;;;;0.40;0.40;;;9.80;99.90;;;;;;5017549;28;20434;-69
2022/04/28 06:31:29;;;;;;;0.50;0.50;;;10.00;99.90;;;;;;4996093;28;20434;-70
2022/04/28 06:34:17;;;;;;;2.73;2.63;;;10.20;99.90;;;;;;5013728;28;20943;-68
2022/04/28 06:37:06;;;;;;;0.40;0.40;;;10.40;99.90;;;;;;5015821;28;20458;-69
2022/04/28 06:39:54;;;;;;;2.97;1.70;;;10.60;99.90;;;;;;5016098;28;20493;-69
2022/04/28 06:42:43;;;;;;;0.40;0.40;;;10.80;99.90;;;;;;5015074;28;20461;-69
2022/04/28 06:45:33;;;;;;;0.50;0.50;;;11.00;99.90;;;;;;5017178;28;20434;-69
2022/04/28 06:48:21;;;;;;;0.40;0.40;;;11.10;99.90;;;;;;5016472;28;20476;-69
2022/04/28 06:51:09;;;;;;;0.50;0.50;;;11.30;99.90;;;;;;5015806;28;20456;-69
2022/04/28 06:54:00;;;;;;;0.43;0.43;;;11.40;99.90;;;;;;5016146;28;20430;-69
2022/04/28 06:56:48;;;;;;;0.40;0.40;;;11.60;99.90;;;;;;5015249;28;20446;-69
2022/04/28 06:59:36;;;;;;;0.50;0.50;;;11.60;99.90;;;;;;5016118;28;20426;-70
2022/04/28 07:02:25;;;;;;;0.40;0.40;;;11.70;99.90;;;;;;5015247;28;20516;-69
2022/04/28 07:05:14;;;;;;;1.83;1.80;;;11.60;99.90;;;;;;5014365;28;20540;-68
2022/04/28 07:08:03;;;;;;;0.40;0.40;;;11.60;99.90;;;;;;5015686;28;20446;-68
2022/04/28 07:10:52;;;;;;;0.40;0.40;;;11.60;99.90;;;;;;5015575;28;21009;-67
2022/04/28 07:13:40;;;;;;;0.60;0.60;;;11.50;99.90;;;;;;5015921;28;20864;-68
2022/04/28 07:16:28;;;;;;;0.90;0.63;;;11.40;99.90;;;;;;5016127;28;20430;-69
2022/04/28 07:19:17;;;;;;;0.50;0.50;;;11.30;99.90;;;;;;5015536;28;20569;-69
2022/04/28 07:22:06;;;;;;;0.50;0.50;;;11.30;99.90;;;;;;5015110;28;20569;-69
2022/04/28 07:24:54;;;;;;;0.40;0.40;;;11.20;99.90;;;;;;5015267;28;20426;-68
2022/04/28 07:27:42;;;;;;;0.40;0.40;;;11.20;99.90;;;;;;5015306;28;20465;-69
2022/04/28 07:30:30;;;;;;;0.70;0.57;;;11.30;99.90;;;;;;5014671;28;20772;-69
2022/04/28 07:33:18;;;;;;;0.40;0.40;;;11.30;99.90;;;;;;5014618;28;20930;-69
2022/04/28 07:36:07;;;;;;;0.40;0.40;;;11.60;99.90;;;;;;5014331;28;20433;-69
2022/04/28 07:38:55;;;;;;;0.40;0.40;;;11.90;99.90;;;;;;5021533;28;20437;-69
2022/04/28 07:41:43;;;;;;;1.20;1.13;;;12.20;99.90;;;;;;5027682;28;20535;-67
2022/04/28 07:44:32;;;;;;;0.67;0.50;;;12.50;99.90;;;;;;5011622;28;20441;-68
2022/04/28 07:47:20;;;;;;;0.60;0.60;;;12.50;99.90;;;;;;5012779;28;20468;-68
2022/04/28 07:50:10;;;;;;;0.97;0.97;;;12.70;99.90;;;;;;5013532;28;20871;-68
2022/04/28 07:52:59;;;;;;;0.50;0.50;;;12.80;99.90;;;;;;5012612;28;20429;-69
2022/04/28 07:56:10;;;;;;;0.70;0.70;;;13.00;99.90;;;;;;4995735;28;20963;-67
2022/04/28 07:58:56;;;;;;;0.50;0.50;;;13.30;99.90;;;;;;5009494;28;20214;-68
2022/04/28 08:02:05;;;;;;;2.30;0.97;;;13.40;99.90;;;;;;5013622;28;20541;-67
2022/04/28 08:04:53;;;;;;;0.40;0.40;;;13.60;99.90;;;;;;5012228;28;20947;-67
2022/04/28 08:07:41;;;;;;;0.40;0.40;;;13.70;99.90;;;;;;5013008;28;20537;-67
2022/04/28 08:10:31;;;;;;;1.37;0.70;;;13.70;99.90;;;;;;5014552;28;20819;-67
2022/04/28 08:13:19;;;;;;;0.40;0.40;;;13.60;99.90;;;;;;5014369;28;20626;-68
2022/04/28 08:16:07;;;;;;;0.97;0.97;;;13.30;99.90;;;;;;5019172;28;20421;-67
2022/04/28 08:18:55;;;;;;;1.70;1.17;;;13.10;99.90;;;;;;5027699;28;20424;-67
2022/04/28 08:21:43;;;;;;;3.40;1.40;;;13.00;99.90;;;;;;5022565;28;20289;-67
2022/04/28 08:24:31;;;;;;;1.53;1.43;;;12.60;99.90;;;;;;5012221;28;20434;-67
2022/04/28 08:27:25;;;;;;;1.50;0.90;;;12.60;99.90;;;;;;5015485;28;20851;-68
2022/04/28 08:30:13;;;;;;;0.47;0.47;;;12.60;99.90;;;;;;5014905;28;20955;-68
2022/04/28 08:33:03;;;;;;;1.90;1.07;;;12.60;99.90;;;;;;5001534;28;20948;-68
2022/04/28 08:35:51;;;;;;;0.50;0.50;;;12.50;99.90;;;;;;5008850;28;20442;-68
2022/04/28 08:38:39;;;;;;;1.13;0.70;;;12.50;99.90;;;;;;5018310;28;20459;-67
2022/04/28 08:41:32;;;;;;;0.40;0.40;;;12.40;99.90;;;;;;5017418;28;20430;-68
2022/04/28 08:44:23;;;;;;;1.90;1.80;;;12.50;99.90;;;;;;5018285;28;20429;-66
2022/04/28 08:47:11;;;;;;;0.53;0.53;;;12.60;99.90;;;;;;5018465;28;20516;-69
2022/04/28 08:49:59;;;;;;;0.40;0.40;;;12.60;99.90;;;;;;5022257;28;20501;-66
2022/04/28 08:52:49;;;;;;;0.60;0.60;;;12.70;99.90;;;;;;5037942;28;20483;-68
2022/04/28 08:55:37;;;;;;;2.17;0.83;;;12.80;99.90;;;;;;5036748;28;20851;-67
2022/04/28 08:58:25;;;;;;;0.40;0.40;;;12.80;99.90;;;;;;5018122;28;20231;-68
2022/04/28 09:01:15;;;;;;;0.40;0.40;;;12.90;99.90;;;;;;5015637;28;20441;-67
2022/04/28 09:04:05;;;;;;;0.50;0.50;;;13.00;99.90;;;;;;5015077;28;20841;-67
2022/04/28 09:06:59;;;;;;;0.67;0.67;;;13.00;99.90;;;;;;5016732;28;20532;-68
2022/04/28 09:09:48;;;;;;;0.97;0.90;;;13.10;99.90;;;;;;5030819;28;20425;-68
2022/04/28 09:12:36;;;;;;;0.50;0.50;;;13.20;99.90;;;;;;5041311;28;20930;-75
2022/04/28 09:15:24;;;;;;;0.73;0.73;;;13.30;99.90;;;;;;5041522;28;20452;-75
2022/04/28 09:18:14;;;;;;;0.80;0.80;;;13.50;99.90;;;;;;5029290;28;20476;-76
2022/04/28 09:21:04;;;;;;;0.67;0.67;;;13.60;99.90;;;;;;5026478;28;20432;-76
2022/04/28 09:23:53;;;;;;;0.40;0.40;;;13.60;99.90;;;;;;5021967;28;20465;-76
2022/04/28 09:26:42;;;;;;;4.50;2.47;;;13.80;99.90;;;;;;5023518;28;20465;-75
2022/04/28 09:29:36;;;;;;;1.37;1.13;;;14.00;99.90;;;;;;5022638;28;20453;-74
2022/04/28 09:32:26;;;;;;;1.73;1.63;;;14.30;99.90;;;;;;5021940;28;20271;-75
2022/04/28 09:35:36;;;;;;;0.70;0.70;;;14.50;99.90;;;;;;5023804;28;20735;-75
2022/04/28 09:38:24;;;;;;;0.60;0.60;;;14.40;99.90;;;;;;5024214;28;20219;-74
2022/04/28 09:44:43;;;;;;;0.90;0.90;;;14.50;99.90;;;;;;5024548;28;20644;-74
2022/04/28 09:47:32;;;;;;;1.10;0.97;;;14.70;99.90;;;;;;5026989;28;20227;-77
2022/04/28 09:50:20;;;;;;;2.43;1.50;;;14.70;99.90;;;;;;5021728;28;20512;-74
2022/04/28 09:53:11;;;;;;;0.40;0.40;;;14.90;99.90;;;;;;5015355;28;20195;-75
2022/04/28 09:56:01;;;;;;;1.00;1.00;;;15.10;99.90;;;;;;5025612;28;20203;-74
2022/04/28 09:58:51;;;;;;;2.10;2.00;;;15.30;99.90;;;;;;5034057;28;20324;-74
2022/04/28 10:01:40;;;;;;;0.60;0.60;;;15.60;99.90;;;;;;5020760;28;20210;-76
2022/04/28 10:04:30;;;;;;;0.40;0.40;;;15.80;99.90;;;;;;5024981;28;20669;-76
2022/04/28 10:07:19;;;;;;;5.50;2.88;;;15.90;99.90;;;;;;5021025;28;20214;-75
2022/04/28 10:10:09;;;;;;;0.50;0.50;;;16.00;99.90;;;;;;5022292;28;20202;-76
2022/04/28 10:13:00;;;;;;;0.40;0.40;;;16.00;99.90;;;;;;5024196;28;20199;-76
2022/04/28 10:15:51;;;;;;;0.82;0.82;;;15.90;99.90;;;;;;5021820;28;20265;-75
2022/04/28 10:18:42;;;;;;;0.60;0.60;;;15.70;99.90;;;;;;5017109;28;20274;-75
2022/04/28 10:21:36;;;;;;;0.50;0.50;;;15.70;99.90;;;;;;5019810;28;20203;-75
2022/04/28 10:33:48;;;;;;;1.50;1.40;;;15.50;99.90;;;;;;5017188;28;20206;-71
2022/04/28 10:36:51;;;;;;;2.70;1.67;;;15.20;99.90;;;;;;5017437;28;20680;-78
2022/04/28 10:39:40;;;;;;;1.65;0.93;;;15.20;99.90;;;;;;5020595;28;20206;-74
2022/04/28 10:43:00;;;;;;;0.40;0.40;;;15.50;99.90;;;;;;5009174;28;20198;-74
2022/04/28 10:45:49;;;;;;;2.28;1.58;;;15.80;99.90;;;;;;5015433;28;20199;-74
2022/04/28 10:48:42;;;;;;;0.73;0.73;;;16.20;99.90;;;;;;5011862;28;20231;-75
2022/04/28 10:51:32;;;;;;;1.00;1.00;;;16.30;99.90;;;;;;4998847;28;20210;-74
2022/04/28 10:54:24;;;;;;;0.75;0.65;;;16.20;99.90;;;;;;4997205;28;20199;-74
2022/04/28 10:57:13;;;;;;;1.33;1.23;;;15.90;99.90;;;;;;4997537;28;20227;-74
2022/04/28 11:00:05;;;;;;;0.77;0.77;;;15.70;99.90;;;;;;5009350;28;20234;-73
2022/04/28 11:03:00;;;;;;;0.45;0.45;;;15.70;99.90;;;;;;5019637;28;20233;-73
2022/04/28 11:05:54;;;;;;;0.60;0.60;;;15.90;99.90;;;;;;5015316;28;20291;-74
2022/04/28 11:08:45;;;;;;;1.95;0.80;;;15.90;99.90;;;;;;5010697;28;20746;-74
2022/04/28 11:11:43;;;;;;;1.17;1.08;;;16.00;99.90;;;;;;5009128;28;20202;-73
2022/04/28 11:14:44;;;;;;;0.50;0.50;;;16.00;99.90;;;;;;5008403;28;20202;-73
2022/04/28 11:17:36;;;;;;;0.40;0.40;;;16.10;99.90;;;;;;5018467;28;20226;-72
2022/04/28 11:20:24;;;;;;;0.40;0.40;;;16.10;99.40;;;;;;5014808;28;20203;-73
2022/04/28 11:23:13;;;;;;;0.60;0.60;;;16.20;98.50;;;;;;5016929;28;20960;-73
2022/04/28 11:26:02;;;;;;;0.43;0.43;;;16.30;98.30;;;;;;5016275;28;20265;-73
2022/04/28 11:28:54;;;;;;;0.50;0.50;;;16.50;97.50;;;;;;5008361;28;20214;-74
2022/04/28 11:31:49;;;;;;;0.63;0.63;;;16.90;97.30;;;;;;5010151;28;20752;-75
2022/04/28 11:34:39;;;;;;;1.10;1.00;;;17.50;96.90;;;;;;5007328;28;20218;-74
2022/04/28 11:37:28;;;;;;;2.30;2.10;;;18.10;94.40;;;;;;5011989;28;20854;-75
2022/04/28 11:40:17;;;;;;;0.50;0.50;;;18.00;93.60;;;;;;5017194;28;20206;-75
2022/04/28 11:43:20;;;;;;;0.50;0.50;;;17.70;95.00;;;;;;5015039;28;20244;-72
2022/04/28 11:46:09;;;;;;;0.45;0.45;;;17.30;95.40;;;;;;5014207;28;20211;-74
2022/04/28 11:48:58;;;;;;;0.40;0.40;;;17.10;95.80;;;;;;5010899;28;20214;-74
2022/04/28 11:51:51;;;;;;;0.50;0.50;;;17.10;95.90;;;;;;5013601;28;20206;-73
2022/04/28 11:54:40;;;;;;;1.25;1.15;;;17.10;94.70;;;;;;5016826;28;20638;-73
2022/04/28 11:57:29;;;;;;;0.40;0.40;;;17.00;94.50;;;;;;5015054;28;20262;-72
2022/04/28 12:00:18;;;;;;;0.40;0.40;;;17.10;94.80;;;;;;5009973;28;20610;-75
2022/04/28 12:03:06;;;;;;;0.77;0.77;;;17.60;95.10;;;;;;5010236;28;20204;-75
2022/04/28 12:05:56;;;;;;;0.57;0.55;;;17.90;93.60;;;;;;5013779;28;20211;-74
2022/04/28 12:08:51;;;;;;;0.85;0.85;;;17.90;93.20;;;;;;5026326;28;20225;-73
2022/04/28 12:14:46;;;;;;;0.95;0.57;;;17.30;93.40;;;;;;5018879;28;20207;-75
2022/04/28 12:21:01;;;;;;;2.33;1.02;;;17.40;94.30;;;;;;5020411;28;20221;-74
2022/04/28 12:23:55;;;;;;;0.40;0.40;;;17.10;93.40;;;;;;5006122;28;20229;-74
2022/04/28 12:26:45;;;;;;;0.40;0.40;;;16.90;93.30;;;;;;5017557;28;20273;-74
2022/04/28 12:29:48;;;;;;;1.10;1.10;;;16.80;93.80;;;;;;5014839;28;20261;-73
2022/04/28 12:32:49;;;;;;;0.60;0.60;;;17.10;93.60;;;;;;5003029;28;20298;-74
2022/04/28 12:35:37;;;;;;;0.40;0.40;;;17.30;92.90;;;;;;5015860;28;20199;-74
2022/04/28 12:38:27;;;;;;;0.40;0.40;;;17.60;92.70;;;;;;5020413;28;20609;-73
2022/04/28 12:41:18;;;;;;;0.60;0.57;;;17.70;92.60;;;;;;5012574;28;20548;-75
2022/04/28 12:44:07;;;;;;;0.40;0.40;;;17.90;91.70;;;;;;5003548;28;20276;-74
2022/04/28 12:47:05;;;;;;;0.43;0.43;;;18.10;92.00;;;;;;5012559;28;20225;-75
2022/04/28 12:49:54;;;;;;;0.40;0.40;;;18.30;91.00;;;;;;5009075;28;20213;-76
2022/04/28 12:52:42;;;;;;;0.88;0.88;;;18.50;91.80;;;;;;5010677;28;20245;-75
2022/04/28 12:55:36;;;;;;;24.83;1.55;;;19.90;90.80;;;;;;5003397;28;20199;-74
2022/04/28 12:58:27;;;;;;;0.47;0.47;;;21.60;88.30;;;;;;5008488;28;20219;-74
2022/04/28 13:01:18;;;;;;;0.40;0.40;;;22.80;83.80;;;;;;5006766;28;20205;-74
2022/04/28 13:04:09;;;;;;;0.40;0.40;;;24.30;79.40;;;;;;5012087;28;20215;-72
2022/04/28 13:06:57;;;;;;;0.63;0.52;;;26.00;73.50;;;;;;5009704;28;20711;-73
2022/04/28 13:09:50;;;;;;;0.40;0.40;;;27.50;67.80;;;;;;5009115;28;20218;-72
2022/04/28 13:12:38;;;;;;;0.40;0.40;;;28.10;62.70;;;;;;5016632;28;20203;-72
2022/04/28 13:15:27;;;;;;;0.40;0.40;;;28.60;58.90;;;;;;5010612;28;20762;-72
2022/04/28 13:18:15;;;;;;;0.40;0.40;;;29.80;55.80;;;;;;5005698;28;20572;-72
2022/04/28 13:21:03;;;;;;;1.52;1.42;;;30.00;52.70;;;;;;5010045;28;20614;-73
2022/04/28 13:23:52;;;;;;;0.40;0.40;;;30.60;49.70;;;;;;5008892;28;20306;-73
2022/04/28 13:26:40;;;;;;;0.93;0.90;;;31.30;48.40;;;;;;5017826;28;20268;-72
2022/04/28 13:29:29;;;;;;;0.40;0.40;;;31.20;48.90;;;;;;5009602;28;20206;-73
2022/04/28 13:32:18;;;;;;;0.55;0.55;;;31.00;48.50;;;;;;5012068;28;20698;-73
2022/04/28 13:35:07;;;;;;;0.57;0.57;;;31.20;48.00;;;;;;5007637;28;20241;-73
2022/04/28 13:37:56;;;;;;;0.50;0.50;;;31.00;47.50;;;;;;5015644;28;20258;-73
2022/04/28 13:40:44;;;;;;;0.65;0.65;;;31.30;46.90;;;;;;5009169;28;21003;-73
2022/04/28 13:43:33;;;;;;;1.45;1.35;;;30.70;46.50;;;;;;5013942;28;20617;-72
2022/04/28 13:46:21;;;;;;;0.75;0.75;;;30.20;46.60;;;;;;5013374;28;20226;-72
2022/04/28 13:49:11;;;;;;;0.60;0.60;;;29.70;45.90;;;;;;5013541;28;20234;-72
2022/04/28 13:51:59;;;;;;;1.80;1.38;;;28.10;47.30;;;;;;5009438;28;20222;-72
2022/04/28 13:54:47;;;;;;;0.40;0.40;;;27.80;48.90;;;;;;5010293;28;20207;-73
2022/04/28 13:57:35;;;;;;;0.45;0.45;;;28.30;48.70;;;;;;5013256;28;20238;-73
2022/04/28 14:00:23;;;;;;;0.40;0.40;;;28.40;47.60;;;;;;5010401;28;20199;-73
2022/04/28 14:03:11;;;;;;;0.40;0.40;;;28.70;48.20;;;;;;5010074;28;20307;-73
2022/04/28 14:06:03;;;;;;;0.50;0.50;;;28.70;48.10;;;;;;5012908;28;20276;-73
2022/04/28 14:08:51;;;;;;;1.02;0.95;;;27.90;48.60;;;;;;5011714;28;20562;-74
2022/04/28 14:11:40;;;;;;;0.50;0.50;;;25.70;50.40;;;;;;4996622;28;20210;-73
2022/04/28 14:14:28;;;;;;;21.33;1.25;;;23.70;53.10;;;;;;4995704;28;20261;-73
2022/04/28 14:17:16;;;;;;;0.50;0.50;;;22.70;55.20;;;;;;4994337;28;20321;-75
2022/04/28 14:20:06;;;;;;;0.40;0.40;;;21.80;56.40;;;;;;4996380;28;20455;-76
2022/04/28 14:22:56;;;;;;;0.40;0.40;;;21.70;57.20;;;;;;5002996;28;20680;-74
2022/04/28 14:25:45;;;;;;;1.30;0.70;;;22.40;56.40;;;;;;5021102;28;20835;-73
2022/04/28 14:28:33;;;;;;;0.50;0.50;;;22.90;56.50;;;;;;5010492;28;20266;-75
2022/04/28 14:31:21;;;;;;;0.93;0.93;;;22.60;55.70;;;;;;5013579;28;20199;-75
2022/04/28 14:34:30;;;;;;;0.40;0.40;;;21.60;57.30;;;;;;5015833;28;20814;-77
2022/04/28 14:37:18;;;;;;;0.40;0.40;;;21.40;57.40;;;;;;5017164;28;20234;-76
2022/04/28 14:40:10;;;;;;;0.40;0.40;;;20.90;57.90;;;;;;5013961;28;20671;-75
2022/04/28 14:42:58;;;;;;;1.20;1.15;;;21.40;59.00;;;;;;5012372;28;20199;-76
2022/04/28 14:45:48;;;;;;;0.40;0.40;;;23.30;56.40;;;;;;5014526;28;20710;-74
2022/04/28 14:54:44;;;;;;;0.50;0.50;;;25.90;51.90;;;;;;5012555;28;20216;-72
2022/04/28 14:57:39;;;;;;;0.40;0.40;;;26.70;51.10;;;;;;5012059;28;20225;-71
2022/04/28 15:00:28;;;;;;;0.45;0.45;;;27.40;51.50;;;;;;5012610;28;20260;-71
2022/04/28 15:03:17;;;;;;;0.40;0.40;;;28.30;50.40;;;;;;5012435;28;20229;-72
2022/04/28 15:06:06;;;;;;;0.85;0.85;;;29.10;48.30;;;;;;4992571;28;20215;-73
2022/04/28 15:08:54;;;;;;;0.40;0.40;;;29.00;48.00;;;;;;4992260;28;20207;-73
2022/04/28 15:11:43;;;;;;;0.60;0.60;;;28.10;48.80;;;;;;4998265;28;20213;-73
2022/04/28 15:14:34;;;;;;;0.88;0.88;;;28.30;48.10;;;;;;5011892;28;20207;-72
2022/04/28 15:17:23;;;;;;;0.40;0.40;;;30.00;47.30;;;;;;5011052;28;20229;-72
2022/04/28 15:20:13;;;;;;;0.40;0.40;;;31.30;45.20;;;;;;5012493;28;20218;-72
2022/04/28 15:23:01;;;;;;;0.40;0.40;;;31.30;44.40;;;;;;5013065;28;20210;-72
2022/04/28 15:25:49;;;;;;;0.80;0.80;;;30.50;45.10;;;;;;5012984;28;20572;-72
2022/04/28 15:28:37;;;;;;;0.40;0.40;;;29.20;45.10;;;;;;5012897;28;20227;-72
2022/04/28 15:31:26;;;;;;;0.50;0.50;;;28.80;46.30;;;;;;5012938;28;20288;-72
2022/04/28 15:34:16;;;;;;;1.20;0.73;;;29.40;46.00;;;;;;5012883;28;20683;-72